Williamsburg, MA (01096)

12:33 PM EDT on March 26, 2017 (GMT -0400)
leeds | | Change Station
Active Advisory: Freezing Rain Advisory

Elev 154 ft 42.34 °N, 72.70 °W | Updated 12 seconds ago

Rain
Rain
35.6 °F
Feels Like 36 °F
N
0.0
Wind Variable Wind from NNW
Gusts 0.0 mph

Today
High -- | Low -- °F
--% Chance of Precip.
Yesterday
High -- | Low -- °F
Precip. -- in
Pressure 30.53 in
Visibility 10.0 miles
Clouds Overcast 5500 ft
Windchill 36 °F
Dew Point 28 °F
Humidity 73%
Rainfall 0.04 in
Snow Depth Not available.
6:43 AM 7:10 PM
Waning Crescent, 3% visible
METAR KBAF 261553Z 34004KT 10SM -RA OVC055 02/M02 A3051 RMK AO2 RAB02UPB23E30 SLP339 P0000 T00171022
Pressure 30.53 in
Visibility 10.0 miles
Clouds Overcast 5500 ft
Windchill 36 °F
Dew Point 28 °F
Humidity 73%
Rainfall 0.04 in
Snow Depth Not available.
6:43 AM 7:10 PM
Waning Crescent, 3% visible
METAR KBAF 261553Z 34004KT 10SM -RA OVC055 02/M02 A3051 RMK AO2 RAB02UPB23E30 SLP339 P0000 T00171022

Get Your Daily Forecast Email!

Thanks for signing up!

Be on the lookout for a verification email in your inbox.

You'll start receiving severe weather alerts in your inbox..

×

10-Day Weather Forecast

Almanac

Astronomy

Mar. 26, 2017 Rise Set
Actual Time
Civil Twilight
Nautical Twilight
Astronomical Twilight
Moon
Length of Visible Light
Length of Day
Tomorrow will be .
, % of the Moon is Illuminated

Today's Extremes

State Highs State Lows

Community

WunderPhotos

Upload Photos

1,962,540 photos uploaded!

WunderBlog® & News

Nearby

Air Quality

  Air Quality AQ Index Pollutant
Not available.

Snow Depth

Station Depth Elevation

Earthquake Activity

City Distance Mag. Time & Date
Minimum magnitude displayed is 2.5.

Earthquake Activity

City Distance Mag. Time & Date
Minimum magnitude displayed is 2.5.

Coastal Water Temperatures

Place Temperature

Stations

Nearby Weather Stations

Station Location Temp. Windchill Dew Point Humidity Wind Precip. Elev Updated Type
                   

Watches & Warnings

Freezing Rain Advisory
Issued: 9:34 AM EDT Mar. 26, 2017 – National Weather Service

... Freezing Rain Advisory from 8 PM this evening to 8 am EDT Monday...

* locations... include western and central Massachusetts,
especially the higher terrain of the Berkshires and Worcester
Hills.

* Hazard types... freezing rain.

* Accumulations... of less than one tenth of an inch of ice.

* Timing... late tonight into Monday morning.

* Impacts... untreated surfaces may become slippery, especially
those that are elevated and exposed to the elements, leading to
travel difficulties during the Monday morning commute.

Precautionary/preparedness actions...

A Freezing Rain Advisory means that periods of freezing rain or
freezing drizzle will cause travel difficulties. Be prepared for
slippery roads. Slow down and use caution while driving.



For the latest updates... please visit our webpage at
www.Weather.Gov/Boston

You can follow US on facebook at